Time;durP1;ratioP1;P1;durP2;ratioP2;P2;SDS_P1;SDS_P2;PMS_P1;PMS_P2;Temp;Humidity;BMP_temperature;BMP_pressure;BME280_temperature;BME280_humidity;BME280_pressure;Samples;Min_cycle;Max_cycle;Signal;HPM_P1;HPM_P2
2023/05/24 00:00:42;;;;;;;31.80;6.60;;;7.80;99.90;;;;;;5026346;28;20061;-70
2023/05/24 00:03:08;;;;;;;32.03;7.15;;;7.80;99.90;;;;;;4958696;28;226367;-70
2023/05/24 00:05:39;;;;;;;28.95;6.70;;;7.80;99.90;;;;;;5025288;28;20506;-70
2023/05/24 00:08:05;;;;;;;;;;;7.80;99.90;;;;;;4956670;28;207990;-71
2023/05/24 00:10:31;;;;;;;30.38;6.38;;;7.80;99.90;;;;;;5022116;28;19949;-71
2023/05/24 00:12:57;;;;;;;33.17;7.03;;;7.80;99.90;;;;;;5007717;28;20056;-70
2023/05/24 00:15:24;;;;;;;32.70;7.22;;;7.80;99.90;;;;;;4946664;28;189430;-70
2023/05/24 00:17:50;;;;;;;32.15;6.88;;;7.80;99.90;;;;;;4988211;28;20061;-70
2023/05/24 00:20:16;;;;;;;31.95;7.13;;;7.80;99.90;;;;;;4956710;28;206338;-70
2023/05/24 00:22:42;;;;;;;30.15;6.70;;;7.90;99.90;;;;;;4988832;28;20050;-70
2023/05/24 00:25:08;;;;;;;36.50;7.55;;;7.90;99.90;;;;;;4964635;28;207943;-71
2023/05/24 00:27:36;;;;;;;34.22;7.88;;;7.90;99.90;;;;;;4994586;28;20060;-71
2023/05/24 00:30:03;;;;;;;33.15;6.82;;;7.90;99.90;;;;;;4946931;28;229667;-70
2023/05/24 00:32:29;;;;;;;29.20;7.20;;;7.90;99.90;;;;;;4995786;28;20053;-70
2023/05/24 00:34:55;;;;;;;28.33;6.78;;;7.90;99.90;;;;;;4945146;28;207491;-70
2023/05/24 00:37:22;;;;;;;31.92;6.95;;;7.90;99.90;;;;;;4987011;28;20078;-71
2023/05/24 00:39:48;;;;;;;33.08;7.03;;;7.90;99.90;;;;;;4958163;28;206590;-71
2023/05/24 00:42:14;;;;;;;37.47;6.85;;;7.90;99.90;;;;;;4996133;28;20070;-69
2023/05/24 00:44:40;;;;;;;32.10;7.53;;;7.90;99.90;;;;;;4973887;28;195262;-70
2023/05/24 00:47:07;;;;;;;38.95;7.28;;;7.90;99.90;;;;;;5007958;28;20075;-70
2023/05/24 00:49:33;;;;;;;32.10;7.32;;;7.90;99.90;;;;;;4957312;28;210443;-70
2023/05/24 00:52:00;;;;;;;31.08;7.30;;;8.00;99.90;;;;;;5015596;28;20052;-70
2023/05/24 00:54:28;;;;;;;39.42;7.53;;;8.00;99.90;;;;;;4962305;28;211462;-70
2023/05/24 00:56:55;;;;;;;29.77;6.28;;;8.00;99.90;;;;;;4995334;28;20081;-71
2023/05/24 00:59:23;;;;;;;28.17;6.65;;;8.00;99.90;;;;;;4939434;28;208859;-70
2023/05/24 01:01:49;;;;;;;37.50;7.35;;;8.00;99.90;;;;;;4989752;28;20058;-70
2023/05/24 01:04:16;;;;;;;34.35;7.60;;;8.10;99.90;;;;;;4946820;28;209370;-71
2023/05/24 01:07:06;;;;;;;33.17;6.65;;;8.10;99.90;;;;;;4994974;28;20050;-71
2023/05/24 01:09:51;;;;;;;38.53;6.97;;;8.00;99.90;;;;;;4956659;28;207901;-70
2023/05/24 01:12:27;;;;;;;30.40;6.95;;;8.00;99.90;;;;;;5000632;28;20053;-72
2023/05/24 01:15:15;;;;;;;39.00;6.75;;;8.00;99.90;;;;;;4968182;28;219813;-72
2023/05/24 01:18:00;;;;;;;27.67;6.75;;;7.90;99.90;;;;;;4986711;28;20102;-71
2023/05/24 01:20:31;;;;;;;30.73;7.00;;;7.90;99.90;;;;;;4968051;28;269849;-70
2023/05/24 01:23:18;;;;;;;37.97;7.38;;;7.90;99.90;;;;;;5007250;28;22249;-70
2023/05/24 01:25:53;;;;;;;33.80;6.88;;;7.90;99.90;;;;;;4961613;28;79773;-70
2023/05/24 01:28:20;;;;;;;29.40;7.00;;;7.80;99.90;;;;;;4932793;28;217206;-71
2023/05/24 01:30:46;;;;;;;33.65;6.88;;;7.80;99.90;;;;;;4979104;28;20053;-69
2023/05/24 01:33:13;;;;;;;36.40;8.97;;;7.80;99.90;;;;;;4940814;28;207451;-69
2023/05/24 01:35:41;;;;;;;35.20;6.88;;;7.80;99.90;;;;;;5011753;28;20050;-70
2023/05/24 01:38:09;;;;;;;30.67;6.60;;;7.80;99.90;;;;;;4952409;28;206921;-69
2023/05/24 01:40:37;;;;;;;31.88;7.47;;;7.70;99.90;;;;;;4963998;28;20046;-70
2023/05/24 01:43:28;;;;;;;32.45;7.15;;;7.70;99.90;;;;;;4949951;28;207106;-70
2023/05/24 01:46:17;;;;;;;33.45;6.85;;;7.70;99.90;;;;;;4995667;28;20719;-72
2023/05/24 01:48:51;;;;;;;31.30;7.68;;;7.60;99.90;;;;;;4941061;28;211288;-70
2023/05/24 01:51:21;;;;;;;29.55;6.53;;;7.60;99.90;;;;;;5019331;28;20053;-71
2023/05/24 01:53:49;;;;;;;32.57;6.97;;;7.70;99.90;;;;;;4957990;28;210954;-70
2023/05/24 01:56:18;;;;;;;29.80;6.57;;;7.70;99.90;;;;;;5008302;28;20313;-70
2023/05/24 01:58:46;;;;;;;29.38;7.00;;;7.70;99.90;;;;;;4950193;28;208207;-70
2023/05/24 02:01:13;;;;;;;34.50;7.30;;;7.70;99.90;;;;;;5011642;28;20049;-70
2023/05/24 02:03:39;;;;;;;29.92;7.45;;;7.70;99.90;;;;;;4936229;28;206388;-70
2023/05/24 02:06:07;;;;;;;33.40;7.15;;;7.70;99.90;;;;;;5002865;28;20054;-69
2023/05/24 02:08:33;;;;;;;33.30;7.05;;;7.80;99.90;;;;;;4927205;28;206296;-70
2023/05/24 02:10:59;;;;;;;34.35;7.13;;;7.80;99.90;;;;;;4995254;28;20046;-71
2023/05/24 02:13:25;;;;;;;35.03;7.47;;;7.80;99.90;;;;;;4927556;28;212176;-72
2023/05/24 02:15:52;;;;;;;31.92;6.68;;;7.90;99.90;;;;;;4996232;28;20054;-71
2023/05/24 02:18:18;;;;;;;32.33;7.30;;;8.00;99.90;;;;;;4963180;28;208779;-72
2023/05/24 02:20:45;;;;;;;32.95;7.20;;;8.00;99.90;;;;;;4992151;28;20050;-70
2023/05/24 02:23:11;;;;;;;29.23;6.35;;;8.10;99.90;;;;;;4942657;28;205799;-70
2023/05/24 02:25:37;;;;;;;33.67;6.88;;;8.20;99.90;;;;;;4996879;28;20046;-71
2023/05/24 02:28:03;;;;;;;29.30;6.50;;;8.10;99.90;;;;;;4947575;28;213638;-70
2023/05/24 02:30:29;;;;;;;32.28;7.32;;;8.10;99.90;;;;;;5001554;28;20423;-71
2023/05/24 02:32:56;;;;;;;30.85;6.38;;;8.20;99.90;;;;;;4992137;28;20050;-71
2023/05/24 02:35:22;;;;;;;27.52;5.85;;;8.20;99.90;;;;;;4979371;28;206226;-71
2023/05/24 02:37:48;;;;;;;28.42;6.40;;;8.20;99.90;;;;;;5004070;28;20415;-71
2023/05/24 02:40:14;;;;;;;27.52;6.30;;;8.20;99.90;;;;;;4948081;28;210206;-70
2023/05/24 02:42:40;;;;;;;38.42;7.63;;;8.20;99.90;;;;;;4986923;28;20049;-70
2023/05/24 02:45:07;;;;;;;33.30;6.40;;;8.20;99.90;;;;;;4980494;28;206996;-70
2023/05/24 02:47:33;;;;;;;33.78;6.43;;;8.20;99.90;;;;;;5003492;28;20057;-71
2023/05/24 02:49:59;;;;;;;31.92;6.35;;;8.20;99.90;;;;;;4992001;28;211564;-70
2023/05/24 02:52:25;;;;;;;30.17;6.68;;;8.30;99.90;;;;;;5012952;28;20050;-70
2023/05/24 02:54:51;;;;;;;27.55;6.18;;;8.30;99.90;;;;;;4968707;28;206629;-71
2023/05/24 02:57:17;;;;;;;29.55;6.30;;;8.30;99.90;;;;;;4988989;28;20050;-71
2023/05/24 02:59:43;;;;;;;27.17;6.47;;;8.30;99.90;;;;;;4933228;28;207327;-71
2023/05/24 03:02:12;;;;;;;28.73;5.95;;;8.30;99.90;;;;;;4990924;28;20411;-71
2023/05/24 03:04:38;;;;;;;27.38;5.93;;;8.40;99.90;;;;;;4976783;28;206835;-71
2023/05/24 03:07:04;;;;;;;33.70;6.53;;;8.40;99.90;;;;;;5007856;28;20057;-71
2023/05/24 03:09:30;;;;;;;29.05;6.75;;;8.40;99.90;;;;;;4955546;28;165897;-71
2023/05/24 03:11:56;;;;;;;35.88;6.82;;;8.40;99.90;;;;;;4995933;28;20062;-69
2023/05/24 03:14:23;;;;;;;32.92;6.78;;;8.40;99.90;;;;;;4958269;28;212528;-70
2023/05/24 03:16:50;;;;;;;28.90;6.28;;;8.40;99.90;;;;;;4998589;28;20065;-70
2023/05/24 03:19:16;;;;;;;28.83;6.50;;;8.40;99.90;;;;;;4956420;28;208663;-70
2023/05/24 03:21:43;;;;;;;28.40;6.20;;;8.40;99.90;;;;;;5001878;28;20054;-70
2023/05/24 03:24:11;;;;;;;26.80;5.38;;;8.40;99.90;;;;;;4947662;28;233812;-71
2023/05/24 03:26:39;;;;;;;28.90;6.57;;;8.40;99.90;;;;;;5005107;28;20046;-70
2023/05/24 03:29:05;;;;;;;35.08;6.40;;;8.40;99.90;;;;;;4957746;28;208113;-71
2023/05/24 03:31:32;;;;;;;30.65;6.55;;;8.40;99.90;;;;;;5008346;28;20045;-71
2023/05/24 03:33:58;;;;;;;26.85;6.55;;;8.40;99.90;;;;;;4964962;28;206726;-70
2023/05/24 03:36:25;;;;;;;30.38;5.90;;;8.40;99.90;;;;;;5013492;28;20105;-71
2023/05/24 03:38:51;;;;;;;31.30;6.18;;;8.40;99.90;;;;;;4956100;28;209717;-70
2023/05/24 03:41:17;;;;;;;28.92;6.05;;;8.50;99.90;;;;;;5002502;28;20077;-70
2023/05/24 03:43:43;;;;;;;32.88;6.70;;;8.40;99.90;;;;;;4948612;28;207623;-70
2023/05/24 03:46:09;;;;;;;27.25;5.93;;;8.40;99.90;;;;;;5009201;28;20057;-71
2023/05/24 03:48:35;;;;;;;24.33;5.82;;;8.50;99.90;;;;;;4936277;28;219839;-70
2023/05/24 03:51:01;;;;;;;30.92;6.13;;;8.50;99.90;;;;;;5009161;28;20066;-70
2023/05/24 03:53:27;;;;;;;24.58;5.97;;;8.50;99.90;;;;;;4937274;28;213901;-70
2023/05/24 03:55:54;;;;;;;25.42;5.35;;;8.50;99.90;;;;;;5012405;28;20503;-70
2023/05/24 03:58:20;;;;;;;24.13;5.37;;;8.50;99.90;;;;;;4920368;28;233477;-70
2023/05/24 04:00:46;;;;;;;33.45;6.63;;;8.50;99.90;;;;;;5017998;28;20050;-69
2023/05/24 04:03:13;;;;;;;33.83;6.13;;;8.50;99.90;;;;;;4943811;28;209519;-71
2023/05/24 04:05:39;;;;;;;29.00;6.25;;;8.60;99.90;;;;;;4995891;28;20052;-71
2023/05/24 04:08:05;;;;;;;25.35;5.30;;;8.60;99.90;;;;;;4961602;28;209513;-70
2023/05/24 04:10:31;;;;;;;27.35;5.53;;;8.60;99.90;;;;;;5016345;28;20377;-70
2023/05/24 04:12:59;;;;;;;28.88;5.65;;;8.60;99.90;;;;;;4988787;28;20047;-70
2023/05/24 04:15:25;;;;;;;25.38;5.50;;;8.60;99.90;;;;;;4972088;28;180070;-70
2023/05/24 04:17:54;;;;;;;25.92;5.97;;;8.70;99.90;;;;;;4990192;28;20138;-70
2023/05/24 04:20:25;;;;;;;33.78;6.07;;;8.60;99.90;;;;;;4963906;28;207610;-70
2023/05/24 04:22:52;;;;;;;24.80;5.45;;;8.70;99.90;;;;;;4987329;28;20412;-71
2023/05/24 04:25:19;;;;;;;25.30;5.78;;;8.70;99.90;;;;;;4962529;28;208761;-69
2023/05/24 04:27:47;;;;;;;26.48;5.40;;;8.80;99.90;;;;;;4988731;28;20511;-70
2023/05/24 04:30:17;;;;;;;28.35;5.10;;;8.80;99.90;;;;;;4986835;28;210442;-70
2023/05/24 04:32:43;;;;;;;28.40;5.85;;;8.80;99.90;;;;;;5007456;28;20046;-71
2023/05/24 04:35:10;;;;;;;27.27;5.53;;;8.90;99.90;;;;;;4954510;28;207360;-69
2023/05/24 04:37:36;;;;;;;24.73;5.05;;;8.90;99.90;;;;;;5019599;28;20046;-70
2023/05/24 04:40:04;;;;;;;26.30;5.30;;;8.90;99.90;;;;;;4950554;28;206139;-70
2023/05/24 04:42:32;;;;;;;23.60;5.13;;;9.00;99.90;;;;;;4986025;28;20059;-70
2023/05/24 04:44:59;;;;;;;26.55;5.18;;;9.00;99.90;;;;;;4942133;28;219268;-70
2023/05/24 04:47:25;;;;;;;30.35;6.40;;;9.00;99.90;;;;;;5012549;28;20058;-69
2023/05/24 04:49:52;;;;;;;25.55;5.28;;;9.10;99.90;;;;;;4954257;28;143837;-70
2023/05/24 04:52:18;;;;;;;26.00;5.15;;;9.20;99.90;;;;;;5020823;28;20057;-71
2023/05/24 04:54:44;;;;;;;28.05;5.10;;;9.20;99.90;;;;;;4962096;28;231893;-71
2023/05/24 04:57:10;;;;;;;25.13;5.50;;;9.30;99.90;;;;;;4995113;28;20053;-70
2023/05/24 04:59:36;;;;;;;28.48;5.68;;;9.30;99.90;;;;;;4949831;28;208938;-69
2023/05/24 05:02:02;;;;;;;23.38;5.10;;;9.30;99.90;;;;;;4993901;28;20120;-71
2023/05/24 05:04:28;;;;;;;25.77;5.45;;;9.40;99.90;;;;;;4951372;28;207839;-71
2023/05/24 05:06:54;;;;;;;22.27;5.43;;;9.50;99.90;;;;;;5009795;28;20054;-69
2023/05/24 05:09:23;;;;;;;23.17;5.15;;;9.50;99.90;;;;;;4948049;28;210802;-70
2023/05/24 05:11:49;;;;;;;25.42;5.05;;;9.50;99.90;;;;;;4994018;28;20404;-70
2023/05/24 05:14:16;;;;;;;27.05;5.68;;;9.60;99.90;;;;;;4948491;28;207786;-70
2023/05/24 05:16:42;;;;;;;27.02;5.80;;;9.60;99.90;;;;;;4993930;28;20046;-69
2023/05/24 05:19:08;;;;;;;23.98;5.45;;;9.70;99.90;;;;;;4944874;28;207428;-70
2023/05/24 05:21:35;;;;;;;27.33;5.28;;;9.80;99.90;;;;;;4992647;28;20534;-70
2023/05/24 05:24:02;;;;;;;25.90;4.90;;;9.70;99.90;;;;;;4947651;28;227216;-70
2023/05/24 05:26:29;;;;;;;29.65;5.25;;;9.70;99.90;;;;;;5015660;28;20068;-70
2023/05/24 05:28:58;;;;;;;24.27;5.18;;;9.90;99.90;;;;;;4946814;28;219294;-69
2023/05/24 05:31:24;;;;;;;25.15;4.72;;;10.10;99.90;;;;;;5005560;28;20037;-70
2023/05/24 05:33:50;;;;;;;26.15;5.38;;;10.20;99.90;;;;;;4965346;28;207552;-69
2023/05/24 05:36:17;;;;;;;28.55;5.25;;;10.30;99.90;;;;;;5016261;28;20045;-70
2023/05/24 05:38:43;;;;;;;23.70;5.15;;;10.40;99.90;;;;;;4990970;28;158750;-69
2023/05/24 05:41:09;;;;;;;25.88;4.90;;;10.50;99.90;;;;;;4990969;28;20050;-70
2023/05/24 05:43:36;;;;;;;23.38;4.60;;;10.50;99.90;;;;;;4940114;28;218881;-71
2023/05/24 05:46:02;;;;;;;26.95;5.03;;;10.60;99.90;;;;;;5008402;28;20428;-71
2023/05/24 05:48:28;;;;;;;24.90;4.60;;;10.60;99.90;;;;;;4948567;28;209978;-70
2023/05/24 05:50:54;;;;;;;23.20;4.53;;;10.70;99.90;;;;;;4970724;28;20054;-71
2023/05/24 05:53:20;;;;;;;26.05;4.93;;;10.80;99.90;;;;;;4931373;28;207099;-71
2023/05/24 05:55:46;;;;;;;28.40;4.53;;;10.90;99.90;;;;;;4997225;28;20061;-71
2023/05/24 05:58:12;;;;;;;25.20;4.50;;;11.00;99.90;;;;;;4917677;28;208195;-72
2023/05/24 06:00:39;;;;;;;32.55;4.93;;;11.00;99.90;;;;;;5016931;28;20834;-70
2023/05/24 06:03:05;;;;;;;24.48;5.35;;;11.20;99.90;;;;;;4974239;28;206676;-72
2023/05/24 06:05:31;;;;;;;21.67;4.28;;;11.20;99.90;;;;;;4986484;28;20051;-71
2023/05/24 06:07:58;;;;;;;24.30;4.88;;;11.20;99.90;;;;;;4983590;28;20666;-70
2023/05/24 06:10:24;;;;;;;25.55;4.43;;;11.30;99.90;;;;;;4974848;28;85543;-72
2023/05/24 06:12:50;;;;;;;27.30;4.93;;;11.40;99.90;;;;;;4981959;28;20058;-71
2023/05/24 06:15:17;;;;;;;21.30;4.60;;;11.50;99.90;;;;;;4981537;28;206566;-71
2023/05/24 06:17:43;;;;;;;30.10;5.25;;;11.60;99.90;;;;;;5005520;28;20570;-71
2023/05/24 06:20:14;;;;;;;25.05;4.82;;;11.70;99.90;;;;;;4962306;28;205964;-72
2023/05/24 06:22:41;;;;;;;27.33;4.72;;;11.80;99.90;;;;;;4997332;28;20062;-71
2023/05/24 06:25:07;;;;;;;21.40;4.30;;;12.00;99.90;;;;;;4948565;28;207821;-71
2023/05/24 06:27:34;;;;;;;22.40;4.60;;;12.00;99.90;;;;;;4983843;28;20073;-73
2023/05/24 06:30:00;;;;;;;24.25;5.25;;;12.20;99.90;;;;;;4949446;28;209219;-71
2023/05/24 06:32:26;;;;;;;23.48;4.85;;;12.30;99.90;;;;;;5017287;28;20042;-71
2023/05/24 06:34:52;;;;;;;25.35;4.97;;;12.40;99.90;;;;;;4962170;28;228448;-71
2023/05/24 06:37:23;;;;;;;26.33;4.47;;;12.50;99.90;;;;;;4988768;28;20393;-71
2023/05/24 06:39:50;;;;;;;22.10;4.78;;;12.50;99.90;;;;;;4957783;28;207539;-72
2023/05/24 06:42:16;;;;;;;20.75;4.10;;;12.70;99.90;;;;;;4988636;28;20062;-72
2023/05/24 06:44:43;;;;;;;16.85;3.40;;;12.70;99.90;;;;;;4959153;28;213365;-69
2023/05/24 06:47:09;;;;;;;22.35;4.38;;;13.00;99.90;;;;;;4993912;28;20065;-71
2023/05/24 06:49:35;;;;;;;21.27;4.18;;;13.10;99.90;;;;;;4952595;28;207672;-72
2023/05/24 06:52:01;;;;;;;19.35;3.78;;;13.60;99.90;;;;;;4994342;28;20495;-72
2023/05/24 06:54:27;;;;;;;22.98;3.85;;;13.80;99.90;;;;;;4958409;28;209209;-71
2023/05/24 06:56:53;;;;;;;19.20;3.85;;;14.00;99.90;;;;;;4994879;28;20058;-72
2023/05/24 06:59:19;;;;;;;18.23;3.60;;;14.20;99.90;;;;;;4929544;28;211884;-72
2023/05/24 07:01:46;;;;;;;22.67;4.32;;;14.20;99.90;;;;;;5003211;28;20062;-71
2023/05/24 07:04:12;;;;;;;17.45;3.58;;;14.00;99.90;;;;;;4950763;28;209596;-71
2023/05/24 07:06:38;;;;;;;16.40;3.30;;;13.90;99.90;;;;;;5001534;28;20412;-71
2023/05/24 07:09:04;;;;;;;20.40;3.90;;;13.90;99.90;;;;;;4947261;28;209734;-71
2023/05/24 07:11:31;;;;;;;18.13;3.60;;;13.90;99.90;;;;;;5004613;28;20057;-72
2023/05/24 07:13:57;;;;;;;19.42;3.63;;;14.00;99.90;;;;;;4950948;28;207726;-72
2023/05/24 07:16:23;;;;;;;18.35;3.78;;;13.90;99.90;;;;;;5016775;28;20054;-71
2023/05/24 07:18:49;;;;;;;15.50;3.22;;;13.90;99.90;;;;;;4957362;28;206812;-71
2023/05/24 07:21:15;;;;;;;20.45;3.25;;;14.00;99.90;;;;;;5009571;28;20122;-72
2023/05/24 07:23:42;;;;;;;15.70;3.40;;;14.20;99.90;;;;;;4936915;28;214678;-71
2023/05/24 07:26:08;;;;;;;17.25;3.40;;;14.60;99.90;;;;;;5002479;28;20046;-71
2023/05/24 07:28:37;;;;;;;18.70;3.15;;;14.90;99.90;;;;;;4939037;28;207323;-71
2023/05/24 07:31:04;;;;;;;18.85;3.55;;;14.70;99.90;;;;;;5009593;28;20054;-71
2023/05/24 07:33:30;;;;;;;16.25;3.22;;;14.40;99.90;;;;;;4938627;28;207406;-71
2023/05/24 07:35:56;;;;;;;18.42;3.53;;;14.20;99.90;;;;;;4999744;28;20050;-71
2023/05/24 07:38:22;;;;;;;16.70;3.90;;;14.20;99.90;;;;;;4943471;28;212953;-71
2023/05/24 07:40:48;;;;;;;20.75;3.58;;;14.50;99.90;;;;;;5017424;28;20050;-72
2023/05/24 07:43:15;;;;;;;19.88;4.13;;;14.80;99.90;;;;;;4933938;28;227569;-70
2023/05/24 07:45:41;;;;;;;20.20;3.75;;;15.30;99.90;;;;;;5014840;28;20061;-70
2023/05/24 07:48:07;;;;;;;19.97;4.40;;;15.50;99.90;;;;;;4937401;28;209225;-70
2023/05/24 07:50:33;;;;;;;17.60;3.92;;;15.70;99.90;;;;;;5022183;28;20416;-69
2023/05/24 07:52:59;;;;;;;16.20;3.85;;;15.60;99.90;;;;;;4996335;28;207056;-69
2023/05/24 07:55:26;;;;;;;18.38;3.83;;;15.40;99.90;;;;;;4988622;28;29783;-71
2023/05/24 07:57:52;;;;;;;16.23;3.60;;;15.10;99.90;;;;;;4990559;28;20081;-71
2023/05/24 08:00:19;;;;;;;19.52;3.78;;;15.00;99.90;;;;;;4927511;28;223580;-70
2023/05/24 08:02:45;;;;;;;16.90;3.72;;;14.90;99.90;;;;;;4989780;28;20065;-70
2023/05/24 08:05:12;;;;;;;18.15;3.97;;;14.80;99.90;;;;;;4959045;28;209851;-71
2023/05/24 08:07:40;;;;;;;21.27;3.47;;;14.60;99.90;;;;;;4986730;28;20061;-70
2023/05/24 08:10:08;;;;;;;18.50;3.50;;;14.60;99.90;;;;;;4961151;28;130957;-70
2023/05/24 08:12:34;;;;;;;19.52;3.40;;;14.60;99.90;;;;;;4981444;28;20393;-70
2023/05/24 08:15:00;;;;;;;18.23;3.40;;;14.50;99.90;;;;;;4953029;28;208641;-71
2023/05/24 08:17:26;;;;;;;18.40;3.30;;;14.50;99.80;;;;;;4988316;28;20060;-69
2023/05/24 08:19:52;;;;;;;14.13;3.45;;;14.80;99.80;;;;;;4958130;28;206687;-69
2023/05/24 08:22:18;;;;;;;15.57;3.08;;;14.70;99.30;;;;;;4993825;28;20061;-71
2023/05/24 08:24:44;;;;;;;20.75;3.40;;;14.80;99.80;;;;;;4956817;28;222599;-71
2023/05/24 08:27:11;;;;;;;16.67;3.65;;;14.60;99.60;;;;;;5018558;28;20065;-70
2023/05/24 08:29:38;;;;;;;20.38;4.00;;;14.30;99.80;;;;;;4944143;28;206775;-70
2023/05/24 08:32:08;;;;;;;18.40;3.08;;;14.10;99.90;;;;;;4993188;28;20058;-71
2023/05/24 08:34:37;;;;;;;18.10;3.47;;;14.40;99.90;;;;;;4967429;28;230011;-70
2023/05/24 08:37:04;;;;;;;19.02;3.70;;;14.40;99.90;;;;;;5021675;28;20053;-69
2023/05/24 08:39:30;;;;;;;17.80;3.58;;;14.30;99.90;;;;;;4966236;28;206376;-70
2023/05/24 08:41:58;;;;;;;16.70;3.67;;;14.40;99.90;;;;;;4995745;28;20523;-70
2023/05/24 08:44:25;;;;;;;19.83;4.00;;;14.30;99.90;;;;;;4973289;28;207160;-69
2023/05/24 08:46:53;;;;;;;18.45;3.97;;;14.20;99.90;;;;;;5001998;28;20511;-69
2023/05/24 08:49:20;;;;;;;17.08;3.75;;;14.50;99.90;;;;;;4943244;28;207648;-68
2023/05/24 08:51:47;;;;;;;18.67;3.88;;;15.50;99.90;;;;;;4992459;28;20050;-69
2023/05/24 08:54:13;;;;;;;17.65;3.78;;;15.80;99.90;;;;;;4952393;28;207336;-69
2023/05/24 08:56:40;;;;;;;16.45;3.10;;;15.50;99.60;;;;;;5011993;28;20054;-70
2023/05/24 08:59:07;;;;;;;16.77;3.38;;;15.20;99.70;;;;;;4940952;28;207577;-71
2023/05/24 09:01:38;;;;;;;19.23;3.67;;;15.00;99.90;;;;;;5000889;28;20054;-71
2023/05/24 09:04:05;;;;;;;16.75;3.60;;;15.40;99.70;;;;;;4969739;28;207647;-69
2023/05/24 09:06:32;;;;;;;16.02;3.55;;;16.40;99.40;;;;;;5032397;28;20056;-69
2023/05/24 09:08:59;;;;;;;15.20;3.67;;;16.30;98.30;;;;;;4959336;28;210121;-69
2023/05/24 09:11:26;;;;;;;14.32;3.20;;;16.10;98.90;;;;;;5005221;28;20047;-68
2023/05/24 09:13:54;;;;;;;17.30;3.53;;;16.20;98.50;;;;;;4962440;28;161191;-68
2023/05/24 09:16:20;;;;;;;14.73;2.90;;;16.70;98.30;;;;;;5003636;28;20050;-69
2023/05/24 09:18:46;;;;;;;13.10;2.90;;;17.40;98.20;;;;;;4941386;28;207505;-70
2023/05/24 09:21:13;;;;;;;14.65;2.90;;;18.00;97.60;;;;;;5023164;28;20058;-69
2023/05/24 09:23:40;;;;;;;14.45;2.70;;;17.80;97.10;;;;;;4961988;28;207643;-69
2023/05/24 09:26:08;;;;;;;9.90;2.58;;;17.60;96.20;;;;;;5029335;28;20057;-68
2023/05/24 09:28:35;;;;;;;11.80;2.80;;;17.30;96.50;;;;;;4954534;28;227608;-68
2023/05/24 09:31:03;;;;;;;12.77;2.78;;;18.20;96.20;;;;;;5008648;28;20058;-69
2023/05/24 09:33:32;;;;;;;16.08;2.90;;;18.30;95.80;;;;;;4942480;28;207649;-68
2023/05/24 09:36:03;;;;;;;12.57;3.03;;;18.20;94.90;;;;;;4996198;28;20054;-69
2023/05/24 09:38:29;;;;;;;14.10;2.83;;;17.20;95.10;;;;;;4966481;28;207611;-68
2023/05/24 09:41:05;;;;;;;14.63;3.20;;;16.70;96.40;;;;;;4998328;28;20053;-67
2023/05/24 09:43:37;;;;;;;12.63;3.20;;;16.50;96.80;;;;;;4935195;28;209243;-69
2023/05/24 09:46:03;;;;;;;16.00;3.13;;;16.70;96.20;;;;;;5007846;28;20054;-68
2023/05/24 09:48:31;;;;;;;12.15;2.60;;;17.30;96.10;;;;;;4947928;28;176730;-69
2023/05/24 09:51:06;;;;;;;12.20;3.00;;;18.00;95.80;;;;;;5032009;28;20057;-67
2023/05/24 09:53:33;;;;;;;15.70;3.40;;;18.70;95.00;;;;;;4949812;28;210128;-68
2023/05/24 09:56:00;;;;;;;10.48;2.67;;;18.40;95.10;;;;;;5003173;28;20050;-68
2023/05/24 09:58:32;;;;;;;12.98;2.80;;;18.00;95.10;;;;;;4924990;28;193439;-67
2023/05/24 10:01:06;;;;;;;13.80;2.95;;;18.20;95.20;;;;;;5005694;28;20404;-68
2023/05/24 10:03:33;;;;;;;11.38;3.15;;;18.00;95.50;;;;;;4932983;28;208077;-67
2023/05/24 10:06:01;;;;;;;11.90;2.88;;;17.70;94.90;;;;;;5006601;28;20046;-67
2023/05/24 10:08:27;;;;;;;15.63;3.20;;;17.60;96.00;;;;;;4934726;28;211385;-66
2023/05/24 10:10:55;;;;;;;10.40;2.78;;;17.50;96.00;;;;;;5011676;28;20045;-67
2023/05/24 10:13:22;;;;;;;11.82;2.67;;;18.50;94.50;;;;;;4945304;28;207783;-68
2023/05/24 10:15:48;;;;;;;11.65;2.88;;;18.30;94.20;;;;;;5031442;28;20062;-67
2023/05/24 10:18:15;;;;;;;13.50;2.92;;;18.60;94.30;;;;;;4956159;28;209085;-66
2023/05/24 10:20:41;;;;;;;13.23;3.35;;;19.10;93.80;;;;;;5009971;28;20065;-67
2023/05/24 10:23:09;;;;;;;12.63;3.25;;;19.80;93.70;;;;;;4938338;28;207955;-66
2023/05/24 10:25:40;;;;;;;13.32;3.17;;;20.20;93.80;;;;;;5007625;28;20523;-66
2023/05/24 10:28:10;;;;;;;12.55;3.00;;;20.60;92.80;;;;;;4935917;28;226430;-66
2023/05/24 10:30:46;;;;;;;13.05;3.10;;;20.50;92.60;;;;;;5015764;28;20061;-65
2023/05/24 10:33:13;;;;;;;10.55;2.90;;;19.60;92.20;;;;;;4937139;28;207394;-66
2023/05/24 10:35:39;;;;;;;11.73;2.90;;;18.70;92.80;;;;;;5017421;28;20042;-66
2023/05/24 10:38:06;;;;;;;11.43;2.80;;;17.80;94.10;;;;;;4941444;28;210202;-64
2023/05/24 10:40:33;;;;;;;11.63;2.60;;;17.00;94.40;;;;;;5002404;28;20061;-67
2023/05/24 10:43:03;;;;;;;13.38;2.95;;;16.70;95.10;;;;;;4978566;28;207933;-64
2023/05/24 10:45:31;;;;;;;13.82;2.80;;;16.70;95.00;;;;;;4953175;28;206589;-66
2023/05/24 10:48:20;;;;;;;12.25;2.88;;;16.90;95.20;;;;;;4984376;28;20061;-65
2023/05/24 10:50:47;;;;;;;13.15;2.80;;;17.50;94.70;;;;;;4942671;28;130259;-64
2023/05/24 10:53:18;;;;;;;12.87;2.70;;;17.60;95.10;;;;;;4931605;28;211237;-65
2023/05/24 10:55:53;;;;;;;;;;;16.90;95.20;;;;;;4996184;28;20590;-66
2023/05/24 10:58:21;;;;;;;12.27;2.88;;;16.70;95.90;;;;;;4913534;28;210860;-64
2023/05/24 11:00:50;;;;;;;12.73;3.15;;;16.70;96.10;;;;;;4998815;28;20068;-64
2023/05/24 11:03:23;;;;;;;16.67;3.15;;;16.70;96.30;;;;;;4935366;28;207636;-65
2023/05/24 11:05:51;;;;;;;15.18;3.00;;;16.50;96.40;;;;;;5022882;28;20435;-65
2023/05/24 11:08:22;;;;;;;11.20;3.03;;;16.30;96.40;;;;;;4952554;28;207487;-67
2023/05/24 11:10:49;;;;;;;16.48;3.10;;;15.90;97.00;;;;;;5003385;28;20508;-65
2023/05/24 11:13:18;;;;;;;17.05;3.58;;;15.60;97.30;;;;;;4966295;28;216922;-64
2023/05/24 11:15:50;;;;;;;14.77;3.60;;;15.70;97.60;;;;;;5017152;28;20352;-66
2023/05/24 11:18:22;;;;;;;16.65;3.25;;;15.40;98.00;;;;;;4931940;28;219940;-64
2023/05/24 11:20:49;;;;;;;17.90;3.67;;;15.30;98.30;;;;;;5015552;28;20050;-64
2023/05/24 11:23:15;;;;;;;17.13;3.77;;;15.20;98.40;;;;;;4937778;28;212347;-66
2023/05/24 11:25:42;;;;;;;20.25;4.00;;;15.30;98.40;;;;;;5019483;28;20057;-65
2023/05/24 11:28:09;;;;;;;15.77;3.40;;;15.60;98.60;;;;;;4948489;28;207420;-65
2023/05/24 11:30:46;;;;;;;17.73;3.60;;;15.90;98.50;;;;;;5016513;28;20059;-67
2023/05/24 11:33:19;;;;;;;20.42;3.97;;;16.10;98.20;;;;;;4941934;28;221720;-66
2023/05/24 11:35:50;;;;;;;12.40;2.83;;;16.10;98.10;;;;;;5016937;28;20077;-64
2023/05/24 11:38:17;;;;;;;16.52;3.45;;;16.10;97.90;;;;;;4941692;28;207507;-65
2023/05/24 11:40:47;;;;;;;15.73;3.17;;;15.90;98.00;;;;;;5011964;28;20415;-66
2023/05/24 11:43:17;;;;;;;14.02;3.65;;;16.00;97.90;;;;;;4932317;28;208131;-64
2023/05/24 11:45:45;;;;;;;15.95;3.78;;;16.00;98.00;;;;;;5037417;28;20049;-67
2023/05/24 11:48:11;;;;;;;16.80;3.80;;;15.90;98.00;;;;;;4951254;28;209383;-66
2023/05/24 11:50:42;;;;;;;19.52;3.55;;;15.80;97.90;;;;;;5039174;28;20541;-65
2023/05/24 11:53:12;;;;;;;;;;;15.90;98.00;;;;;;4955661;28;212692;-66
2023/05/24 11:55:41;;;;;;;15.77;2.90;;;16.20;98.00;;;;;;5014806;28;19933;-66
2023/05/24 11:58:23;;;;;;;15.30;3.20;;;16.30;97.80;;;;;;4932370;28;211079;-66
2023/05/24 12:00:50;;;;;;;16.58;3.40;;;16.20;97.50;;;;;;4995097;28;20062;-65
2023/05/24 12:03:16;;;;;;;15.27;3.30;;;15.90;97.50;;;;;;4945129;28;221316;-65
2023/05/24 12:05:43;;;;;;;13.75;3.20;;;15.60;97.50;;;;;;5008077;28;20062;-66
2023/05/24 12:08:12;;;;;;;14.18;2.90;;;15.50;97.70;;;;;;4936832;28;207239;-66
2023/05/24 12:10:39;;;;;;;20.75;3.28;;;15.50;97.60;;;;;;5017442;28;20527;-66
2023/05/24 12:13:17;;;;;;;15.15;3.17;;;15.40;97.80;;;;;;4940775;28;207939;-68
2023/05/24 12:15:43;;;;;;;13.40;2.95;;;15.30;97.90;;;;;;5001183;28;20053;-67
2023/05/24 12:18:24;;;;;;;13.57;2.90;;;15.10;98.10;;;;;;4938333;28;207432;-66
2023/05/24 12:20:51;;;;;;;17.35;3.05;;;15.20;97.80;;;;;;5003893;28;20058;-66
2023/05/24 12:23:22;;;;;;;15.32;3.10;;;15.30;97.70;;;;;;4942131;28;207439;-65
2023/05/24 12:25:48;;;;;;;16.27;3.13;;;15.50;97.90;;;;;;5012349;28;20054;-66
2023/05/24 12:28:18;;;;;;;15.67;2.90;;;15.50;97.50;;;;;;4933284;28;208638;-65
2023/05/24 12:30:45;;;;;;;17.88;3.40;;;15.30;97.50;;;;;;4999985;28;20611;-67
2023/05/24 12:33:11;;;;;;;13.82;3.33;;;15.50;97.80;;;;;;4937889;28;210216;-65
2023/05/24 12:35:41;;;;;;;16.40;3.70;;;15.30;98.00;;;;;;5012798;28;20046;-66
2023/05/24 12:38:10;;;;;;;13.38;3.13;;;15.50;97.80;;;;;;4930437;28;212586;-65
2023/05/24 12:40:37;;;;;;;14.63;3.35;;;15.70;97.50;;;;;;4996177;28;20076;-67